createdAt,value
2022-10-23T00:01:43.799Z,11.49
2022-10-23T00:04:20.237Z,11.51
2022-10-23T00:06:48.544Z,11.53
2022-10-23T00:09:19.508Z,11.55
2022-10-23T00:11:48.208Z,11.52
2022-10-23T00:14:16.662Z,11.55
2022-10-23T00:16:44.410Z,11.57
2022-10-23T00:19:11.558Z,11.48
2022-10-23T00:21:39.630Z,11.54
2022-10-23T00:24:07.221Z,11.56
2022-10-23T00:26:34.286Z,11.55
2022-10-23T00:29:01.268Z,11.58
2022-10-23T00:31:28.179Z,11.61
2022-10-23T00:33:55.119Z,11.61
2022-10-23T00:36:22.621Z,11.64
2022-10-23T00:38:50.888Z,11.65
2022-10-23T00:41:29.431Z,11.61
2022-10-23T00:44:18.491Z,11.59
2022-10-23T00:46:46.471Z,11.55
2022-10-23T00:49:14.818Z,11.51
2022-10-23T00:51:49.249Z,11.49
2022-10-23T00:54:23.929Z,11.47
2022-10-23T00:56:54.938Z,11.44
2022-10-23T00:59:22.068Z,11.41
2022-10-23T01:01:49.201Z,11.40
2022-10-23T01:04:17.076Z,11.35
2022-10-23T01:06:51.727Z,11.28
2022-10-23T01:09:43.768Z,11.26
2022-10-23T01:12:14.679Z,11.21
2022-10-23T01:14:54.948Z,11.18
2022-10-23T01:17:44.907Z,11.17
2022-10-23T01:20:31.871Z,11.12
2022-10-23T01:23:36.065Z,11.11
2022-10-23T01:26:12.358Z,11.08
2022-10-23T01:28:50.470Z,11.06
2022-10-23T01:31:30.928Z,11.02
2022-10-23T01:34:10.008Z,11.03
2022-10-23T01:36:44.239Z,11.04
2022-10-23T01:39:36.183Z,11.06
2022-10-23T01:42:08.748Z,11.05
2022-10-23T01:44:41.829Z,11.04
2022-10-23T01:47:12.626Z,11.04
2022-10-23T01:50:00.088Z,11.05
2022-10-23T01:52:27.330Z,11.07
2022-10-23T01:54:59.799Z,11.09
2022-10-23T01:57:31.549Z,11.12
2022-10-23T02:00:07.470Z,11.15
2022-10-23T02:02:52.779Z,11.19
2022-10-23T02:05:26.450Z,11.20
2022-10-23T02:07:55.321Z,11.22
2022-10-23T02:10:28.988Z,11.23
2022-10-23T02:13:05.348Z,11.22
2022-10-23T02:15:36.850Z,11.26
2022-10-23T02:18:14.391Z,11.24
2022-10-23T02:21:10.215Z,11.24
2022-10-23T02:24:01.368Z,11.18
2022-10-23T02:26:56.268Z,11.20
2022-10-23T02:29:31.169Z,11.19
2022-10-23T02:31:59.808Z,11.18
2022-10-23T02:34:26.829Z,11.20
2022-10-23T02:36:54.529Z,11.19
2022-10-23T02:39:26.948Z,11.20
2022-10-23T02:41:59.740Z,11.18
2022-10-23T02:44:55.059Z,11.17
2022-10-23T02:47:39.985Z,11.15
2022-10-23T02:50:13.179Z,11.18
2022-10-23T02:53:01.639Z,11.18
2022-10-23T02:55:35.991Z,11.18
2022-10-23T02:58:22.028Z,11.16
2022-10-23T03:00:57.215Z,11.16
2022-10-23T03:03:30.219Z,11.11
2022-10-23T03:05:57.838Z,11.12
2022-10-23T03:08:25.331Z,11.11
2022-10-23T03:10:52.670Z,11.11
2022-10-23T03:13:21.678Z,11.08
2022-10-23T03:15:48.679Z,11.05
2022-10-23T03:18:15.728Z,11.02
2022-10-23T03:20:47.868Z,11.01
2022-10-23T03:23:15.268Z,11.00
2022-10-23T03:25:43.009Z,10.99
2022-10-23T03:28:10.970Z,10.99
2022-10-23T03:30:38.056Z,10.98
2022-10-23T03:33:05.049Z,11.00
2022-10-23T03:35:35.387Z,11.01
2022-10-23T03:38:02.549Z,11.01
2022-10-23T03:40:29.736Z,11.01
2022-10-23T03:42:56.738Z,11.00
2022-10-23T03:45:23.860Z,11.00
2022-10-23T03:47:52.021Z,10.97
2022-10-23T03:50:19.179Z,10.97
2022-10-23T03:52:46.416Z,10.96
2022-10-23T03:55:14.981Z,10.93
2022-10-23T03:57:41.978Z,10.96
2022-10-23T04:00:10.598Z,10.95
2022-10-23T04:02:44.585Z,10.93
2022-10-23T04:05:12.499Z,10.92
2022-10-23T04:07:47.779Z,10.87
2022-10-23T04:10:15.122Z,10.88
2022-10-23T04:12:42.469Z,10.89
2022-10-23T04:15:10.079Z,10.89
2022-10-23T04:17:37.158Z,10.88
2022-10-23T04:20:05.200Z,10.88
2022-10-23T04:22:32.200Z,10.85
2022-10-23T04:25:00.560Z,10.85
2022-10-23T04:27:29.355Z,10.84
2022-10-23T04:29:59.014Z,10.81
2022-10-23T04:32:27.067Z,10.73
2022-10-23T04:34:53.973Z,10.71
2022-10-23T04:37:21.180Z,10.71
2022-10-23T04:39:48.196Z,10.69
2022-10-23T04:42:15.498Z,10.60
2022-10-23T04:44:42.516Z,10.58
2022-10-23T04:47:09.631Z,10.57
2022-10-23T04:49:46.376Z,10.54
2022-10-23T04:52:33.293Z,10.53
2022-10-23T04:55:07.631Z,10.49
2022-10-23T04:58:04.137Z,10.49
2022-10-23T05:00:32.316Z,10.51
2022-10-23T05:02:59.441Z,10.53
2022-10-23T05:05:32.505Z,10.53
2022-10-23T05:08:04.689Z,10.55
2022-10-23T05:11:06.585Z,10.56
2022-10-23T05:13:40.594Z,10.57
2022-10-23T05:16:08.936Z,10.59
2022-10-23T05:18:46.885Z,10.59
2022-10-23T05:21:26.146Z,10.60
2022-10-23T05:23:55.093Z,10.62
2022-10-23T05:26:22.684Z,10.56
2022-10-23T05:28:52.615Z,10.56
2022-10-23T05:31:22.604Z,10.53
2022-10-23T05:33:51.787Z,10.39
2022-10-23T05:36:21.566Z,10.39
2022-10-23T05:38:54.894Z,10.40
2022-10-23T05:41:22.165Z,10.43
2022-10-23T05:43:49.333Z,10.43
2022-10-23T05:46:43.627Z,10.46
2022-10-23T05:49:42.775Z,10.55
2022-10-23T05:52:32.927Z,10.64
2022-10-23T05:55:18.556Z,10.68
2022-10-23T05:58:04.177Z,10.79
2022-10-23T06:01:00.804Z,10.85
2022-10-23T06:03:46.493Z,10.90
2022-10-23T06:06:13.655Z,10.91
2022-10-23T06:08:46.967Z,10.97
2022-10-23T06:11:15.634Z,10.98
2022-10-23T06:13:49.776Z,11.06
2022-10-23T06:16:24.925Z,10.99
2022-10-23T06:18:52.591Z,10.98
2022-10-23T06:21:20.099Z,10.97
2022-10-23T06:23:49.675Z,11.04
2022-10-23T06:26:18.615Z,11.05
2022-10-23T06:28:57.260Z,11.14
2022-10-23T06:31:26.993Z,11.18
2022-10-23T06:33:56.596Z,11.23
2022-10-23T06:36:24.784Z,11.31
2022-10-23T06:38:56.545Z,11.39
2022-10-23T06:41:36.965Z,11.48
2022-10-23T06:44:04.124Z,11.58
2022-10-23T06:46:49.526Z,11.64
2022-10-23T06:49:35.205Z,11.74
2022-10-23T06:52:03.119Z,11.82
2022-10-23T06:54:30.259Z,11.90
2022-10-23T06:57:20.242Z,12.02
2022-10-23T06:59:47.326Z,12.13
2022-10-23T07:02:16.238Z,12.23
2022-10-23T07:04:43.213Z,12.37
2022-10-23T07:07:17.615Z,12.47
2022-10-23T07:09:47.747Z,12.57
2022-10-23T07:12:25.025Z,12.68
2022-10-23T07:15:12.006Z,12.74
2022-10-23T07:17:39.174Z,12.79
2022-10-23T07:20:06.639Z,12.86
2022-10-23T07:22:34.414Z,12.92
2022-10-23T07:25:11.535Z,12.97
2022-10-23T07:27:39.935Z,13.06
2022-10-23T07:30:09.666Z,13.07
2022-10-23T07:32:50.695Z,13.11
2022-10-23T07:35:52.938Z,13.21
2022-10-23T07:38:25.877Z,13.27
2022-10-23T07:40:57.835Z,13.36
2022-10-23T07:43:25.680Z,13.46
2022-10-23T07:45:53.693Z,13.53
2022-10-23T07:48:46.726Z,13.67
2022-10-23T07:51:16.247Z,13.82
2022-10-23T07:53:46.467Z,13.93
2022-10-23T07:56:32.049Z,14.04
2022-10-23T07:59:13.479Z,14.16
2022-10-23T08:01:43.750Z,14.22
2022-10-23T08:04:10.932Z,14.35
2022-10-23T08:06:45.445Z,14.44
2022-10-23T08:09:12.500Z,14.55
2022-10-23T08:11:42.456Z,14.70
2022-10-23T08:14:11.904Z,14.85
2022-10-23T08:16:42.473Z,14.91
2022-10-23T08:19:18.776Z,14.98
2022-10-23T08:21:47.605Z,15.04
2022-10-23T08:24:15.248Z,15.11
2022-10-23T08:26:45.150Z,15.17
2022-10-23T08:29:13.684Z,15.21
2022-10-23T08:31:41.450Z,15.21
2022-10-23T08:34:28.960Z,15.39
2022-10-23T08:36:56.384Z,15.45
2022-10-23T08:39:24.270Z,15.54
2022-10-23T08:42:19.577Z,15.64
2022-10-23T08:45:05.395Z,15.75
2022-10-23T08:47:42.325Z,15.88
2022-10-23T08:53:22.482Z,16.22
2022-10-23T08:56:18.523Z,16.32
2022-10-23T09:01:37.841Z,16.48
2022-10-23T09:04:05.575Z,16.63
2022-10-23T09:06:45.305Z,16.73
2022-10-23T09:09:30.904Z,16.83
2022-10-23T09:12:11.868Z,16.93
2022-10-23T09:14:57.765Z,17.07
2022-10-23T09:17:28.285Z,17.24
2022-10-23T09:20:22.789Z,17.36
2022-10-23T09:23:11.473Z,17.45
2022-10-23T09:25:40.576Z,17.67
2022-10-23T09:28:16.314Z,17.83
2022-10-23T09:30:43.735Z,18.00
2022-10-23T09:33:28.867Z,18.19
2022-10-23T09:36:00.177Z,18.28
2022-10-23T09:38:32.077Z,18.47
2022-10-23T09:41:08.303Z,18.70
2022-10-23T09:43:35.303Z,18.85
2022-10-23T09:46:06.735Z,18.87
2022-10-23T09:48:36.094Z,19.02
2022-10-23T09:51:05.116Z,19.22
2022-10-23T09:53:50.893Z,19.41
2022-10-23T09:56:24.734Z,19.57
2022-10-23T09:59:01.136Z,19.80
2022-10-23T10:01:45.520Z,19.96
2022-10-23T10:04:37.064Z,20.07
2022-10-23T10:07:07.095Z,20.25
2022-10-23T10:09:34.593Z,20.37
2022-10-23T10:12:18.355Z,20.47
2022-10-23T10:14:48.234Z,20.49
2022-10-23T10:17:20.934Z,20.54
2022-10-23T10:20:05.478Z,20.70
2022-10-23T10:22:42.979Z,20.78
2022-10-23T10:25:52.061Z,20.94
2022-10-23T10:28:42.045Z,20.67
2022-10-23T10:31:11.798Z,20.69
2022-10-23T10:33:41.809Z,20.90
2022-10-23T10:36:47.459Z,20.94
2022-10-23T10:39:45.631Z,21.16
2022-10-23T10:42:21.526Z,21.24
2022-10-23T10:45:01.760Z,21.23
2022-10-23T10:47:57.486Z,21.27
2022-10-23T10:50:56.257Z,21.28
2022-10-23T10:54:12.479Z,21.18
2022-10-23T10:56:43.326Z,21.14
2022-10-23T10:59:19.411Z,21.07
2022-10-23T11:13:34.041Z,20.74
2022-10-23T11:16:25.815Z,20.89
2022-10-23T11:19:14.174Z,21.10
2022-10-23T11:21:59.877Z,21.38
2022-10-23T11:24:45.342Z,21.58
2022-10-23T11:27:46.373Z,21.84
2022-10-23T11:30:22.096Z,22.08
2022-10-23T11:33:07.070Z,22.27
2022-10-23T11:35:45.808Z,22.36
2022-10-23T11:38:35.311Z,22.46
2022-10-23T11:41:19.968Z,22.48
2022-10-23T11:43:52.838Z,22.67
2022-10-23T11:46:28.918Z,22.64
2022-10-23T11:48:57.242Z,22.67
2022-10-23T11:51:34.979Z,22.66
2022-10-23T11:54:25.026Z,22.59
2022-10-23T11:57:03.027Z,22.41
2022-10-23T11:59:45.276Z,22.34
2022-10-23T12:02:38.433Z,22.40
2022-10-23T12:05:42.413Z,22.46
2022-10-23T12:08:23.642Z,22.51
2022-10-23T12:10:53.082Z,22.39
2022-10-23T12:13:52.639Z,22.38
2022-10-23T12:16:19.617Z,22.50
2022-10-23T12:18:53.202Z,22.51
2022-10-23T12:21:28.832Z,22.61
2022-10-23T12:24:12.388Z,22.69
2022-10-23T12:26:43.798Z,22.94
2022-10-23T12:29:22.947Z,22.98
2022-10-23T12:32:14.186Z,23.22
2022-10-23T12:34:44.167Z,23.37
2022-10-23T12:37:34.348Z,23.38
2022-10-23T12:40:02.110Z,23.47
2022-10-23T12:42:29.942Z,23.64
2022-10-23T12:45:15.009Z,23.56
2022-10-23T12:47:44.467Z,23.72
2022-10-23T12:50:19.385Z,23.78
2022-10-23T12:53:01.497Z,23.97
2022-10-23T12:55:35.812Z,24.35
2022-10-23T12:58:03.201Z,25.19
2022-10-23T13:00:31.246Z,26.03
2022-10-23T13:03:00.751Z,26.73
2022-10-23T13:05:29.419Z,27.41
2022-10-23T13:07:58.136Z,27.72
2022-10-23T13:10:37.806Z,28.01
2022-10-23T13:13:08.678Z,28.39
2022-10-23T13:15:44.317Z,28.90
2022-10-23T13:18:14.678Z,29.27
2022-10-23T13:20:52.249Z,29.29
2022-10-23T13:23:32.967Z,29.29
2022-10-23T13:26:23.840Z,29.61
2022-10-23T13:28:51.298Z,28.69
2022-10-23T13:31:18.178Z,28.53
2022-10-23T13:33:53.506Z,28.28
2022-10-23T13:36:23.442Z,28.63
2022-10-23T13:39:00.183Z,28.38
2022-10-23T13:41:44.608Z,28.30
2022-10-23T13:44:13.657Z,28.05
2022-10-23T13:46:41.007Z,27.47
2022-10-23T13:49:07.915Z,26.74
2022-10-23T13:51:42.584Z,26.27
2022-10-23T13:54:24.656Z,25.54
2022-10-23T13:56:52.866Z,25.23
2022-10-23T13:59:20.407Z,24.68
2022-10-23T14:01:48.952Z,24.57
2022-10-23T14:04:17.855Z,24.24
2022-10-23T14:06:45.147Z,23.82
2022-10-23T14:09:14.820Z,23.62
2022-10-23T14:11:42.421Z,23.43
2022-10-23T14:14:09.701Z,23.29
2022-10-23T14:16:36.778Z,23.00
2022-10-23T14:19:04.083Z,22.87
2022-10-23T14:21:31.038Z,22.69
2022-10-23T14:23:57.937Z,22.53
2022-10-23T14:26:30.595Z,22.27
2022-10-23T14:29:02.270Z,22.17
2022-10-23T14:31:33.949Z,21.94
2022-10-23T14:34:01.867Z,21.83
2022-10-23T14:36:38.529Z,21.64
2022-10-23T14:39:16.690Z,21.45
2022-10-23T14:41:43.732Z,21.26
2022-10-23T14:44:10.796Z,21.11
2022-10-23T14:46:38.642Z,20.95
2022-10-23T14:49:06.101Z,20.80
2022-10-23T14:51:33.227Z,20.70
2022-10-23T14:54:03.164Z,20.60
2022-10-23T14:56:32.267Z,20.49
2022-10-23T14:59:03.061Z,20.38
2022-10-23T15:01:35.165Z,20.31
2022-10-23T15:04:02.216Z,20.21
2022-10-23T15:06:29.166Z,20.07
2022-10-23T15:08:56.449Z,19.95
2022-10-23T15:11:24.944Z,19.88
2022-10-23T15:13:52.045Z,19.81
2022-10-23T15:16:18.977Z,19.71
2022-10-23T15:18:45.906Z,19.65
2022-10-23T15:21:12.932Z,19.59
2022-10-23T15:23:43.197Z,19.50
2022-10-23T15:26:13.127Z,19.39
2022-10-23T15:28:40.142Z,19.30
2022-10-23T15:31:07.188Z,19.24
2022-10-23T15:33:34.138Z,19.17
2022-10-23T15:36:01.057Z,19.10
2022-10-23T15:38:28.098Z,19.02
2022-10-23T15:41:10.976Z,18.92
2022-10-23T15:43:38.046Z,18.83
2022-10-23T15:46:05.175Z,18.68
2022-10-23T15:48:32.161Z,18.57
2022-10-23T15:50:59.458Z,18.46
2022-10-23T15:53:26.546Z,18.37
2022-10-23T15:55:53.516Z,18.28
2022-10-23T15:58:20.576Z,18.19
2022-10-23T16:00:47.512Z,18.08
2022-10-23T16:03:14.450Z,17.99
2022-10-23T16:05:41.477Z,17.89
2022-10-23T16:08:08.487Z,17.82
2022-10-23T16:10:42.417Z,17.74
2022-10-23T16:13:09.843Z,17.66
2022-10-23T16:15:37.807Z,17.58
2022-10-23T16:18:05.610Z,17.51
2022-10-23T16:20:32.518Z,17.44
2022-10-23T16:22:59.535Z,17.36
2022-10-23T16:25:26.519Z,17.28
2022-10-23T16:27:53.545Z,17.21
2022-10-23T16:30:22.628Z,17.16
2022-10-23T16:32:50.996Z,17.06
2022-10-23T16:35:17.916Z,16.98
2022-10-23T16:37:56.828Z,16.94
2022-10-23T16:40:24.357Z,16.88
2022-10-23T16:43:09.885Z,16.78
2022-10-23T16:45:41.466Z,16.71
2022-10-23T16:48:08.489Z,16.68
2022-10-23T16:53:29.226Z,16.56
2022-10-23T16:55:57.816Z,16.51
2022-10-23T16:58:25.969Z,16.49
2022-10-23T17:01:20.321Z,16.49
2022-10-23T17:03:49.319Z,16.45
2022-10-23T17:06:19.338Z,16.44
2022-10-23T17:08:46.745Z,16.44
2022-10-23T17:11:19.716Z,16.44
2022-10-23T17:13:59.118Z,16.42
2022-10-23T17:16:40.479Z,16.40
2022-10-23T17:19:20.990Z,16.35
2022-10-23T17:21:58.483Z,16.27
2022-10-23T17:24:25.840Z,16.19
2022-10-23T17:26:54.188Z,16.10
2022-10-23T17:29:51.737Z,16.10
2022-10-23T17:32:37.771Z,16.07
2022-10-23T17:35:27.122Z,16.02
2022-10-23T17:37:57.967Z,15.96
2022-10-23T17:40:28.880Z,15.92
2022-10-23T17:43:06.797Z,15.88
2022-10-23T17:45:37.180Z,15.86
2022-10-23T17:48:05.708Z,15.78
2022-10-23T17:50:33.705Z,15.79
2022-10-23T17:53:00.935Z,15.78
2022-10-23T17:55:27.945Z,15.73
2022-10-23T17:57:54.853Z,15.75
2022-10-23T18:00:24.882Z,15.70
2022-10-23T18:02:54.560Z,15.69
2022-10-23T18:05:21.734Z,15.67
2022-10-23T18:07:50.315Z,15.66
2022-10-23T18:10:17.772Z,15.63
2022-10-23T18:12:45.338Z,15.61
2022-10-23T18:15:12.465Z,15.52
2022-10-23T18:17:39.618Z,15.49
2022-10-23T18:20:07.280Z,15.44
2022-10-23T18:22:34.537Z,15.44
2022-10-23T18:25:02.977Z,15.41
2022-10-23T18:27:30.107Z,15.38
2022-10-23T18:29:57.226Z,15.36
2022-10-23T18:32:24.236Z,15.30
2022-10-23T18:34:51.384Z,15.21
2022-10-23T18:37:19.127Z,15.20
2022-10-23T18:39:46.206Z,15.14
2022-10-23T18:42:13.214Z,15.13
2022-10-23T18:44:40.307Z,15.12
2022-10-23T18:47:07.514Z,15.08
2022-10-23T18:49:34.597Z,15.07
2022-10-23T18:52:01.637Z,15.05
2022-10-23T18:54:28.760Z,15.07
2022-10-23T18:56:55.846Z,15.03
2022-10-23T18:59:23.659Z,15.02
2022-10-23T19:01:50.914Z,14.99
2022-10-23T19:04:18.808Z,14.97
2022-10-23T19:06:47.248Z,14.99
2022-10-23T19:09:14.927Z,14.98
2022-10-23T19:11:42.715Z,14.92
2022-10-23T19:14:10.206Z,14.89
2022-10-23T19:16:39.856Z,14.86
2022-10-23T19:19:23.004Z,14.79
2022-10-23T19:21:51.038Z,14.83
2022-10-23T19:24:23.256Z,14.77
2022-10-23T19:26:51.065Z,14.75
2022-10-23T19:29:22.366Z,14.68
2022-10-23T19:31:49.979Z,14.70
2022-10-23T19:34:20.178Z,14.67
2022-10-23T19:36:48.866Z,14.62
2022-10-23T19:39:17.880Z,14.62
2022-10-23T19:41:45.751Z,14.60
2022-10-23T19:44:14.867Z,14.58
2022-10-23T19:46:41.945Z,14.56
2022-10-23T19:49:09.405Z,14.54
2022-10-23T19:51:37.437Z,14.50
2022-10-23T19:54:05.437Z,14.46
2022-10-23T19:56:32.535Z,14.38
2022-10-23T19:58:59.464Z,14.36
2022-10-23T20:01:26.506Z,14.33
2022-10-23T20:03:55.645Z,14.32
2022-10-23T20:06:26.778Z,14.31
2022-10-23T20:08:54.577Z,14.29
2022-10-23T20:11:24.617Z,14.31
2022-10-23T20:13:52.328Z,14.26
2022-10-23T20:16:20.447Z,14.18
2022-10-23T20:18:47.729Z,14.17
2022-10-23T20:21:15.046Z,14.18
2022-10-23T20:23:43.286Z,14.15
2022-10-23T20:26:16.227Z,14.18
2022-10-23T20:28:47.188Z,14.13
2022-10-23T20:31:16.325Z,14.13
2022-10-23T20:33:43.566Z,14.16
2022-10-23T20:36:26.106Z,14.16
2022-10-23T20:38:54.125Z,14.19
2022-10-23T20:41:21.978Z,14.17
2022-10-23T20:43:49.036Z,14.17
2022-10-23T20:46:16.075Z,14.12
2022-10-23T20:48:44.846Z,14.11
2022-10-23T20:51:16.011Z,14.03
2022-10-23T20:53:44.161Z,14.00
2022-10-23T20:56:17.005Z,13.98
2022-10-23T20:58:44.507Z,13.95
2022-10-23T21:01:14.112Z,13.95
2022-10-23T21:03:41.157Z,13.95
2022-10-23T21:06:12.666Z,13.93
2022-10-23T21:08:39.866Z,13.90
2022-10-23T21:11:08.606Z,13.93
2022-10-23T21:13:35.928Z,13.93
2022-10-23T21:16:23.629Z,13.96
2022-10-23T21:18:53.177Z,13.95
2022-10-23T21:21:21.627Z,13.93
2022-10-23T21:23:50.776Z,13.90
2022-10-23T21:26:20.225Z,13.92
2022-10-23T21:28:56.097Z,13.95
2022-10-23T21:31:36.329Z,13.93
2022-10-23T21:34:03.963Z,13.92
2022-10-23T21:36:34.237Z,13.91
2022-10-23T21:39:06.819Z,13.92
2022-10-23T21:41:34.756Z,13.95
2022-10-23T21:44:04.955Z,13.98
2022-10-23T21:46:34.493Z,13.95
2022-10-23T21:49:02.155Z,13.89
2022-10-23T21:51:40.425Z,13.91
2022-10-23T21:54:12.476Z,13.89
2022-10-23T21:56:45.645Z,13.92
2022-10-23T21:59:15.230Z,13.91
2022-10-23T22:01:44.657Z,13.90
2022-10-23T22:04:14.479Z,13.86
2022-10-23T22:06:42.836Z,13.87
2022-10-23T22:09:14.149Z,13.91
2022-10-23T22:11:41.506Z,13.89
2022-10-23T22:14:08.635Z,13.92
2022-10-23T22:16:35.653Z,13.95
2022-10-23T22:19:03.118Z,13.99
2022-10-23T22:21:31.798Z,14.00
2022-10-23T22:24:00.389Z,14.00
2022-10-23T22:26:34.726Z,13.96
2022-10-23T22:29:05.247Z,13.93
2022-10-23T22:31:34.380Z,13.87
2022-10-23T22:34:13.196Z,13.84
2022-10-23T22:36:50.139Z,13.84
2022-10-23T22:39:17.135Z,13.83
2022-10-23T22:41:44.209Z,13.85
2022-10-23T22:44:12.430Z,13.87
2022-10-23T22:46:39.316Z,13.76
2022-10-23T22:51:53.233Z,13.66
2022-10-23T22:54:20.158Z,13.71
2022-10-23T22:56:47.135Z,13.72
2022-10-23T22:59:14.157Z,13.76
2022-10-23T23:01:44.895Z,13.75
2022-10-23T23:04:36.702Z,13.75
2022-10-23T23:07:00.220Z,13.77
2022-10-23T23:09:27.115Z,13.71
2022-10-23T23:11:54.026Z,13.72
2022-10-23T23:14:23.704Z,13.77
2022-10-23T23:16:53.320Z,13.77
2022-10-23T23:19:22.664Z,13.75
2022-10-23T23:21:51.189Z,13.69
2022-10-23T23:24:18.202Z,13.69
2022-10-23T23:26:45.167Z,13.60
2022-10-23T23:29:12.516Z,13.66
2022-10-23T23:31:39.635Z,13.66
2022-10-23T23:34:06.735Z,13.67
2022-10-23T23:36:34.100Z,13.71
2022-10-23T23:39:01.668Z,13.69
2022-10-23T23:41:29.697Z,13.67
2022-10-23T23:43:58.388Z,13.71
2022-10-23T23:46:26.656Z,13.68
2022-10-23T23:48:53.517Z,13.67
2022-10-23T23:51:24.336Z,13.62
2022-10-23T23:53:51.842Z,13.60
2022-10-23T23:56:19.815Z,13.60
2022-10-23T23:58:46.897Z,13.63
